Time;durP1;ratioP1;P1;durP2;ratioP2;P2;SDS_P1;SDS_P2;PMS_P1;PMS_P2;Temp;Humidity;BMP_temperature;BMP_pressure;BME280_temperature;BME280_humidity;BME280_pressure;Samples;Min_cycle;Max_cycle;Signal;HPM_P1;HPM_P2
2021/01/09 00:01:26;;;;;;;0.90;0.80;;;20.40;42.00;;;;;;6278914;28;20448;-55
2021/01/09 00:04:27;;;;;;;1.00;0.80;;;20.40;42.00;;;;;;6283215;28;20056;-59
2021/01/09 00:07:30;;;;;;;1.05;0.90;;;20.40;42.10;;;;;;6269752;28;20024;-57
2021/01/09 00:10:31;;;;;;;0.95;0.80;;;20.40;42.10;;;;;;6269663;28;20035;-57
2021/01/09 00:13:32;;;;;;;0.85;0.80;;;20.40;42.10;;;;;;6283575;28;20025;-59
2021/01/09 00:16:33;;;;;;;1.17;1.00;;;20.40;42.10;;;;;;6274538;28;20052;-57
2021/01/09 00:19:34;;;;;;;1.23;0.93;;;20.40;42.00;;;;;;6277740;28;20074;-57
2021/01/09 00:22:35;;;;;;;0.68;0.68;;;20.30;42.80;;;;;;6274571;28;20036;-56
2021/01/09 00:25:36;;;;;;;0.80;0.80;;;20.30;42.10;;;;;;6295461;28;20021;-59
2021/01/09 00:28:36;;;;;;;0.77;0.73;;;20.30;42.10;;;;;;6277518;28;20039;-59
2021/01/09 00:31:37;;;;;;;1.00;0.88;;;20.30;42.00;;;;;;6277120;28;20474;-56
2021/01/09 00:34:37;;;;;;;0.95;0.80;;;20.30;41.90;;;;;;6276732;28;20024;-59
2021/01/09 00:37:38;;;;;;;1.20;0.80;;;20.30;42.00;;;;;;6268158;28;20020;-56
2021/01/09 00:40:38;;;;;;;0.80;0.80;;;20.30;42.10;;;;;;6268980;28;20036;-58
2021/01/09 00:43:39;;;;;;;1.05;0.90;;;20.30;42.20;;;;;;6273315;28;20507;-58
2021/01/09 00:46:39;;;;;;;1.38;0.68;;;20.30;42.10;;;;;;6256921;28;20158;-59
2021/01/09 00:49:40;;;;;;;0.80;0.70;;;20.30;42.10;;;;;;6268982;28;20039;-58
2021/01/09 00:52:40;;;;;;;0.80;0.70;;;20.30;42.20;;;;;;6285941;28;20028;-59
2021/01/09 00:55:41;;;;;;;1.15;0.80;;;20.30;42.10;;;;;;6284072;28;20119;-57
2021/01/09 00:58:42;;;;;;;0.90;0.77;;;20.30;42.20;;;;;;6276209;28;20032;-58
2021/01/09 01:01:43;;;;;;;1.10;0.82;;;20.30;42.20;;;;;;6273909;28;20021;-59
2021/01/09 01:04:43;;;;;;;0.85;0.70;;;20.30;42.30;;;;;;6275368;28;20036;-59
2021/01/09 01:07:44;;;;;;;0.80;0.80;;;20.30;42.20;;;;;;6276335;28;20495;-58
2021/01/09 01:10:46;;;;;;;1.20;0.85;;;20.30;42.10;;;;;;6267916;28;20025;-59
2021/01/09 01:13:47;;;;;;;1.15;0.70;;;20.30;42.30;;;;;;6288110;28;20119;-58
2021/01/09 01:16:51;;;;;;;0.80;0.80;;;20.30;42.40;;;;;;6276642;28;20024;-57
2021/01/09 01:19:51;;;;;;;1.08;0.90;;;20.30;42.30;;;;;;6275690;28;20021;-56
2021/01/09 01:22:52;;;;;;;1.08;0.88;;;20.30;42.20;;;;;;6270643;28;20028;-57
2021/01/09 01:25:52;;;;;;;1.20;1.05;;;20.30;42.40;;;;;;6273180;28;20025;-57
2021/01/09 01:28:53;;;;;;;0.75;0.75;;;20.20;42.20;;;;;;6275712;28;20089;-57
2021/01/09 01:31:57;;;;;;;0.82;0.80;;;20.20;42.10;;;;;;6275915;28;20357;-58
2021/01/09 01:34:57;;;;;;;0.77;0.73;;;20.30;42.20;;;;;;6274397;28;20033;-59
2021/01/09 01:37:58;;;;;;;1.20;1.00;;;20.20;42.10;;;;;;6275613;28;20031;-58
2021/01/09 01:41:09;;;;;;;0.90;0.80;;;20.20;42.10;;;;;;6275570;28;20028;-57
2021/01/09 01:44:10;;;;;;;0.88;0.80;;;20.20;42.20;;;;;;6280253;28;20049;-59
2021/01/09 01:47:16;;;;;;;1.02;0.93;;;20.20;42.20;;;;;;6275731;28;20016;-59
2021/01/09 01:50:16;;;;;;;0.85;0.77;;;20.20;42.30;;;;;;6266282;28;20031;-58
2021/01/09 01:53:17;;;;;;;0.80;0.70;;;20.20;42.20;;;;;;6262776;28;20028;-58
2021/01/09 01:56:22;;;;;;;0.98;0.70;;;20.20;42.40;;;;;;6267293;28;20029;-57
2021/01/09 01:59:22;;;;;;;0.77;0.75;;;20.20;42.30;;;;;;6258881;28;20231;-57
2021/01/09 02:02:23;;;;;;;0.90;0.70;;;20.20;42.30;;;;;;6267219;28;20494;-57
2021/01/09 02:05:26;;;;;;;1.10;0.80;;;20.20;42.40;;;;;;6268198;28;20032;-54
2021/01/09 02:09:00;;;;;;;0.80;0.80;;;20.20;42.40;;;;;;6255990;28;20600;-56
2021/01/09 02:12:25;;;;;;;0.50;0.50;;;20.20;42.30;;;;;;6274488;28;20033;-55
2021/01/09 02:15:26;;;;;;;1.10;1.00;;;20.20;42.30;;;;;;6255242;28;20056;-57
2021/01/09 02:18:27;;;;;;;1.20;0.85;;;20.20;42.30;;;;;;6272170;28;20081;-55
2021/01/09 02:21:42;;;;;;;0.75;0.70;;;20.20;42.40;;;;;;6292732;28;20082;-58
2021/01/09 02:24:45;;;;;;;1.48;0.82;;;20.10;42.30;;;;;;6266159;28;20596;-57
2021/01/09 02:27:45;;;;;;;0.80;0.60;;;20.10;42.40;;;;;;6249926;28;20025;-57
2021/01/09 02:30:48;;;;;;;0.80;0.75;;;20.10;42.30;;;;;;6271357;28;20377;-59
2021/01/09 02:33:49;;;;;;;2.40;0.82;;;20.10;42.30;;;;;;6273931;28;20048;-59
2021/01/09 02:36:50;;;;;;;0.77;0.77;;;20.20;42.40;;;;;;6274762;28;20502;-59
2021/01/09 02:39:52;;;;;;;0.70;0.70;;;20.20;42.30;;;;;;6274802;28;20036;-57
2021/01/09 02:42:52;;;;;;;0.98;0.70;;;20.10;42.20;;;;;;6287265;28;20532;-58
2021/01/09 02:45:53;;;;;;;0.80;0.70;;;20.10;42.40;;;;;;6262017;28;20052;-54
2021/01/09 02:48:53;;;;;;;1.65;0.85;;;20.10;42.40;;;;;;6286413;28;20432;-55
2021/01/09 02:51:54;;;;;;;1.00;0.80;;;20.10;42.40;;;;;;6266259;28;20108;-60
2021/01/09 02:54:54;;;;;;;0.90;0.70;;;20.10;42.40;;;;;;6264758;28;20028;-58
2021/01/09 02:57:55;;;;;;;1.38;0.82;;;20.10;42.40;;;;;;6267429;28;20098;-59
2021/01/09 03:00:55;;;;;;;0.80;0.70;;;20.10;42.50;;;;;;6270328;28;20043;-57
2021/01/09 03:03:59;;;;;;;0.85;0.77;;;20.10;42.50;;;;;;6277798;28;20033;-54
2021/01/09 03:07:00;;;;;;;0.80;0.80;;;20.10;42.40;;;;;;6279436;28;20017;-58
2021/01/09 03:10:00;;;;;;;0.80;0.70;;;20.10;42.50;;;;;;6279069;28;20082;-56
2021/01/09 03:13:01;;;;;;;0.90;0.80;;;20.10;42.50;;;;;;6274224;28;20095;-59
2021/01/09 03:16:01;;;;;;;0.93;0.80;;;20.10;42.60;;;;;;6279038;28;20068;-59
2021/01/09 03:19:02;;;;;;;1.08;0.80;;;20.10;42.50;;;;;;6279061;28;20020;-58
2021/01/09 03:22:08;;;;;;;0.75;0.75;;;20.10;42.50;;;;;;6275973;28;20021;-58
2021/01/09 03:25:10;;;;;;;0.80;0.75;;;20.00;42.40;;;;;;6278593;28;20067;-58
2021/01/09 03:28:10;;;;;;;0.80;0.70;;;20.10;42.50;;;;;;6295493;28;20055;-57
2021/01/09 03:31:11;;;;;;;0.65;0.65;;;20.10;42.50;;;;;;6278779;28;20037;-56
2021/01/09 03:34:11;;;;;;;0.60;0.60;;;20.10;42.50;;;;;;6277658;28;20060;-58
2021/01/09 03:37:13;;;;;;;0.60;0.60;;;20.10;42.50;;;;;;6278258;28;20063;-60
2021/01/09 03:40:15;;;;;;;0.70;0.70;;;20.10;42.50;;;;;;6278300;28;20055;-58
2021/01/09 03:43:15;;;;;;;0.60;0.60;;;20.10;42.50;;;;;;6277768;28;20024;-58
2021/01/09 03:46:16;;;;;;;0.65;0.65;;;20.10;42.50;;;;;;6273101;28;20115;-58
2021/01/09 03:49:16;;;;;;;0.70;0.60;;;20.00;42.50;;;;;;6277882;28;20046;-58
2021/01/09 03:52:17;;;;;;;0.65;0.60;;;20.00;42.50;;;;;;6269882;28;20028;-57
2021/01/09 03:55:17;;;;;;;0.93;0.70;;;20.00;42.50;;;;;;6258842;28;20108;-57
2021/01/09 03:58:18;;;;;;;0.80;0.70;;;20.00;42.50;;;;;;6278230;28;20496;-55
2021/01/09 04:01:19;;;;;;;0.68;0.63;;;20.00;42.60;;;;;;6278273;28;20023;-58
2021/01/09 04:04:20;;;;;;;0.50;0.50;;;20.10;42.60;;;;;;6277930;28;20025;-58
2021/01/09 04:07:20;;;;;;;0.80;0.70;;;20.00;42.50;;;;;;6278371;28;20031;-59
2021/01/09 04:10:21;;;;;;;0.77;0.70;;;20.00;42.50;;;;;;6277110;28;20028;-57
2021/01/09 04:13:21;;;;;;;0.80;0.75;;;20.00;42.50;;;;;;6276874;28;20020;-60
2021/01/09 04:16:22;;;;;;;0.93;0.82;;;20.00;42.60;;;;;;6269367;28;20168;-59
2021/01/09 04:19:22;;;;;;;0.60;0.60;;;20.00;42.50;;;;;;6269638;28;20439;-56
2021/01/09 04:22:23;;;;;;;0.77;0.70;;;20.00;42.60;;;;;;6277413;28;20020;-60
2021/01/09 04:25:24;;;;;;;0.70;0.70;;;20.00;42.60;;;;;;6277631;28;20017;-60
2021/01/09 04:28:24;;;;;;;0.43;0.40;;;20.00;42.60;;;;;;6277599;28;20032;-58
2021/01/09 04:31:26;;;;;;;0.90;0.80;;;20.00;42.60;;;;;;6277050;28;20016;-58
2021/01/09 04:34:26;;;;;;;0.80;0.70;;;20.00;42.60;;;;;;6277305;28;20619;-58
2021/01/09 04:37:27;;;;;;;0.70;0.70;;;20.00;42.50;;;;;;6277081;28;20020;-53
2021/01/09 04:40:27;;;;;;;0.68;0.60;;;20.00;42.50;;;;;;6277131;28;20460;-60
2021/01/09 04:43:28;;;;;;;0.70;0.65;;;20.00;42.60;;;;;;6268708;28;20017;-60
2021/01/09 04:46:31;;;;;;;0.50;0.50;;;20.00;42.60;;;;;;6274424;28;20028;-58
2021/01/09 04:49:31;;;;;;;0.70;0.70;;;20.00;42.60;;;;;;6277091;28;20025;-58
2021/01/09 04:52:33;;;;;;;0.68;0.65;;;20.00;42.60;;;;;;6268217;28;20052;-57
2021/01/09 04:55:36;;;;;;;0.85;0.68;;;20.00;42.60;;;;;;6285378;28;20061;-53
2021/01/09 04:58:38;;;;;;;0.68;0.63;;;19.90;42.60;;;;;;6268373;28;20218;-56
2021/01/09 05:01:40;;;;;;;0.75;0.68;;;20.00;42.70;;;;;;6256884;28;20035;-59
2021/01/09 05:04:44;;;;;;;0.80;0.70;;;20.00;42.70;;;;;;6284921;28;20017;-60
2021/01/09 05:07:44;;;;;;;0.60;0.60;;;19.90;42.50;;;;;;6268570;28;20218;-58
2021/01/09 05:10:49;;;;;;;0.80;0.70;;;19.90;42.50;;;;;;6292554;28;20094;-58
2021/01/09 05:13:50;;;;;;;0.70;0.68;;;20.00;42.60;;;;;;6276601;28;20032;-57
2021/01/09 05:16:50;;;;;;;0.70;0.70;;;20.00;42.60;;;;;;6275717;28;20059;-55
2021/01/09 05:19:51;;;;;;;0.80;0.60;;;20.00;42.60;;;;;;6276197;28;20028;-61
2021/01/09 05:22:52;;;;;;;0.77;0.70;;;20.10;42.70;;;;;;6275454;28;20181;-57
2021/01/09 05:25:54;;;;;;;0.90;0.70;;;20.10;43.50;;;;;;6276070;28;20021;-58
2021/01/09 05:28:57;;;;;;;0.82;0.50;;;20.10;42.80;;;;;;6276072;28;20567;-58
2021/01/09 05:31:57;;;;;;;0.70;0.70;;;20.10;42.80;;;;;;6275809;28;20033;-58
2021/01/09 05:34:58;;;;;;;0.70;0.60;;;20.10;42.80;;;;;;6276360;28;20054;-57
2021/01/09 05:37:58;;;;;;;0.50;0.50;;;20.10;42.90;;;;;;6275815;28;20020;-60
2021/01/09 05:41:07;;;;;;;0.65;0.63;;;20.10;43.00;;;;;;6276021;28;20021;-58
2021/01/09 05:44:09;;;;;;;0.75;0.60;;;20.10;42.90;;;;;;6275586;28;20573;-58
2021/01/09 05:47:11;;;;;;;0.77;0.60;;;20.10;42.90;;;;;;6275816;28;20469;-57
2021/01/09 05:50:11;;;;;;;0.70;0.60;;;20.20;42.90;;;;;;6274972;28;20060;-57
2021/01/09 05:53:50;;;;;;;1.10;0.70;;;20.10;42.90;;;;;;6267472;28;20426;-60
2021/01/09 05:56:51;;;;;;;0.98;0.88;;;20.20;43.00;;;;;;6272784;28;20051;-59
2021/01/09 05:59:52;;;;;;;0.60;0.55;;;20.20;43.10;;;;;;6275560;28;20024;-58
2021/01/09 06:03:01;;;;;;;0.55;0.55;;;20.20;43.10;;;;;;6274797;28;20020;-60
2021/01/09 06:06:25;;;;;;;4.65;0.60;;;20.20;43.10;;;;;;6275532;28;20428;-59
2021/01/09 06:09:33;;;;;;;0.40;0.40;;;20.20;43.10;;;;;;6235995;28;20127;-60
2021/01/09 06:12:37;;;;;;;0.40;0.40;;;20.20;43.10;;;;;;6271394;28;20028;-59
2021/01/09 06:15:43;;;;;;;1.52;0.60;;;20.20;43.20;;;;;;6274510;28;20611;-58
2021/01/09 06:18:45;;;;;;;0.55;0.50;;;20.20;43.20;;;;;;6275092;28;20024;-60
2021/01/09 06:21:45;;;;;;;0.55;0.50;;;20.20;43.20;;;;;;6274530;28;20070;-57
2021/01/09 06:24:46;;;;;;;0.50;0.43;;;20.20;43.20;;;;;;6257472;28;20060;-58
2021/01/09 06:27:52;;;;;;;0.75;0.60;;;20.20;43.20;;;;;;6249759;28;20064;-59
2021/01/09 06:30:55;;;;;;;0.75;0.65;;;20.20;43.20;;;;;;6274962;28;20021;-57
2021/01/09 06:34:00;;;;;;;0.65;0.55;;;20.20;43.20;;;;;;6274136;28;20029;-57
2021/01/09 06:37:02;;;;;;;;;;;20.20;43.20;;;;;;6275075;28;20016;-60
2021/01/09 06:40:04;;;;;;;0.50;0.50;;;20.20;43.30;;;;;;6274118;28;19912;-59
2021/01/09 06:43:05;;;;;;;0.75;0.50;;;20.20;43.20;;;;;;6274633;28;20021;-58
2021/01/09 06:46:11;;;;;;;0.57;0.55;;;20.20;43.30;;;;;;6274614;28;20027;-60
2021/01/09 06:49:17;;;;;;;0.65;0.65;;;20.20;43.30;;;;;;6266263;28;20013;-58
2021/01/09 06:52:23;;;;;;;0.70;0.60;;;20.20;43.30;;;;;;6265957;28;20021;-59
2021/01/09 06:55:35;;;;;;;0.95;0.50;;;20.20;43.30;;;;;;6265917;28;20021;-59
2021/01/09 06:58:36;;;;;;;0.60;0.60;;;20.20;43.30;;;;;;6268621;28;20017;-59
2021/01/09 07:01:40;;;;;;;0.50;0.50;;;20.20;43.40;;;;;;6273212;28;20120;-59
2021/01/09 07:04:48;;;;;;;0.88;0.68;;;20.20;43.40;;;;;;6273889;28;20112;-55
2021/01/09 07:07:53;;;;;;;0.65;0.52;;;20.20;43.40;;;;;;6273603;28;20511;-58
2021/01/09 07:10:57;;;;;;;0.55;0.55;;;20.20;43.40;;;;;;6269453;28;20051;-58
2021/01/09 07:14:12;;;;;;;0.70;0.60;;;20.20;43.40;;;;;;6273617;28;20040;-59
2021/01/09 07:17:15;;;;;;;0.75;0.60;;;20.20;43.40;;;;;;6292263;28;20553;-60
2021/01/09 07:20:18;;;;;;;0.65;0.60;;;20.20;43.40;;;;;;6273067;28;20496;-57
2021/01/09 07:23:21;;;;;;;0.60;0.60;;;20.20;43.40;;;;;;6274107;28;20393;-58
2021/01/09 07:26:23;;;;;;;0.50;0.50;;;20.20;43.40;;;;;;6265063;28;20585;-57
2021/01/09 07:29:27;;;;;;;0.73;0.63;;;20.20;43.50;;;;;;6270369;28;20033;-58
2021/01/09 07:32:44;;;;;;;0.60;0.55;;;20.20;43.50;;;;;;6273212;28;20477;-59
2021/01/09 07:35:45;;;;;;;0.63;0.60;;;20.10;43.40;;;;;;6273418;28;20024;-59
2021/01/09 07:38:47;;;;;;;0.47;0.47;;;20.20;43.50;;;;;;6273599;28;20024;-56
2021/01/09 07:41:51;;;;;;;0.43;0.43;;;20.10;43.40;;;;;;6266066;28;20029;-56
2021/01/09 07:45:08;;;;;;;0.60;0.60;;;20.10;43.40;;;;;;6271925;28;20352;-60
2021/01/09 07:48:19;;;;;;;0.50;0.50;;;20.20;43.50;;;;;;6286315;28;20024;-59
2021/01/09 07:51:49;;;;;;;0.50;0.50;;;20.20;43.40;;;;;;6278006;28;20411;-58
2021/01/09 07:54:55;;;;;;;1.13;0.70;;;20.20;43.50;;;;;;6277851;28;20127;-57
2021/01/09 07:57:55;;;;;;;0.47;0.40;;;20.20;43.50;;;;;;6278003;28;20151;-59
2021/01/09 08:00:56;;;;;;;0.47;0.40;;;20.20;43.40;;;;;;6270109;28;20267;-59
2021/01/09 08:03:58;;;;;;;0.65;0.52;;;20.20;43.50;;;;;;6277384;28;20465;-56
2021/01/09 08:07:03;;;;;;;0.75;0.50;;;20.20;43.50;;;;;;6277751;28;20021;-58
2021/01/09 08:10:15;;;;;;;0.50;0.50;;;20.20;43.50;;;;;;6269217;28;20481;-54
2021/01/09 08:13:17;;;;;;;0.50;0.40;;;20.20;43.50;;;;;;6286331;28;20036;-58
2021/01/09 08:16:24;;;;;;;0.45;0.40;;;20.20;43.50;;;;;;6278109;28;20028;-58
2021/01/09 08:19:26;;;;;;;0.70;0.47;;;20.20;43.60;;;;;;6294389;28;20028;-59
2021/01/09 08:22:27;;;;;;;0.50;0.50;;;20.20;43.50;;;;;;6269081;28;20390;-55
2021/01/09 08:25:30;;;;;;;0.63;0.60;;;20.20;43.60;;;;;;6291636;28;20029;-58
2021/01/09 08:28:31;;;;;;;0.65;0.52;;;20.20;43.60;;;;;;6277297;28;20032;-59
2021/01/09 08:31:36;;;;;;;0.50;0.50;;;20.20;43.60;;;;;;6277554;28;20500;-57
2021/01/09 08:34:36;;;;;;;0.60;0.60;;;20.20;43.60;;;;;;6277139;28;20020;-58
2021/01/09 08:37:37;;;;;;;0.50;0.50;;;20.20;43.50;;;;;;6269034;28;20025;-59
2021/01/09 08:40:38;;;;;;;0.40;0.40;;;20.20;43.60;;;;;;6271642;28;20045;-59
2021/01/09 08:43:39;;;;;;;0.75;0.50;;;20.20;43.60;;;;;;6276629;28;20086;-56
2021/01/09 08:46:41;;;;;;;0.65;0.50;;;20.20;43.60;;;;;;6277447;28;20431;-56
2021/01/09 08:49:44;;;;;;;0.50;0.50;;;20.20;43.60;;;;;;6276535;28;20056;-58
2021/01/09 08:52:48;;;;;;;0.30;0.30;;;20.20;43.50;;;;;;6276677;28;20381;-59
2021/01/09 08:55:51;;;;;;;0.50;0.50;;;20.20;43.60;;;;;;6277039;28;20123;-56
2021/01/09 08:58:52;;;;;;;0.57;0.57;;;20.20;43.70;;;;;;6276350;28;20029;-57
2021/01/09 09:02:08;;;;;;;0.65;0.55;;;20.20;43.60;;;;;;6294175;28;20075;-59
2021/01/09 09:05:10;;;;;;;0.57;0.57;;;20.10;43.50;;;;;;6293611;28;20496;-53
2021/01/09 09:08:13;;;;;;;0.40;0.40;;;20.20;43.50;;;;;;6292650;28;20025;-58
2021/01/09 09:11:16;;;;;;;0.43;0.43;;;20.20;43.30;;;;;;6293138;28;20041;-56
2021/01/09 09:14:16;;;;;;;0.50;0.50;;;20.30;43.30;;;;;;6275960;28;20033;-57
2021/01/09 09:17:20;;;;;;;0.60;0.50;;;20.30;43.10;;;;;;6268259;28;20094;-59
2021/01/09 09:20:23;;;;;;;0.60;0.52;;;20.40;43.10;;;;;;6268109;28;20052;-57
2021/01/09 09:23:25;;;;;;;0.55;0.43;;;20.40;42.90;;;;;;6275978;28;20469;-55
2021/01/09 09:26:31;;;;;;;0.52;0.52;;;20.40;43.00;;;;;;6270721;28;20064;-59
2021/01/09 09:29:32;;;;;;;0.57;0.50;;;20.50;43.00;;;;;;6275783;28;20040;-59
2021/01/09 09:32:33;;;;;;;0.82;0.55;;;20.60;43.00;;;;;;6278488;28;20393;-58
2021/01/09 09:35:34;;;;;;;0.52;0.50;;;20.60;43.00;;;;;;6309381;28;20367;-58
2021/01/09 09:38:34;;;;;;;0.63;0.50;;;20.60;43.10;;;;;;6282419;28;20029;-59
2021/01/09 09:41:47;;;;;;;0.90;0.38;;;20.70;43.10;;;;;;6293074;28;20078;-53
2021/01/09 09:44:47;;;;;;;0.50;0.50;;;20.70;43.10;;;;;;6276089;28;20029;-56
2021/01/09 09:47:49;;;;;;;0.55;0.50;;;20.70;43.10;;;;;;6275329;28;20102;-58
2021/01/09 09:50:59;;;;;;;0.50;0.40;;;20.70;43.00;;;;;;6275077;28;20108;-57
2021/01/09 09:53:59;;;;;;;0.82;0.63;;;20.80;43.10;;;;;;6275470;28;20467;-58
2021/01/09 09:57:00;;;;;;;0.85;0.60;;;20.80;43.10;;;;;;6275425;28;20076;-55
2021/01/09 10:00:12;;;;;;;0.55;0.50;;;20.80;43.10;;;;;;6274871;28;20067;-56
2021/01/09 10:03:12;;;;;;;0.40;0.40;;;20.80;43.10;;;;;;6275307;28;20021;-56
2021/01/09 10:06:13;;;;;;;0.85;0.65;;;20.80;43.00;;;;;;6275049;28;20109;-57
2021/01/09 10:09:17;;;;;;;0.63;0.60;;;20.80;43.10;;;;;;6274529;28;20040;-57
2021/01/09 10:12:18;;;;;;;0.35;0.35;;;20.90;43.20;;;;;;6274720;28;20059;-57
2021/01/09 10:15:18;;;;;;;0.65;0.47;;;20.80;43.00;;;;;;6274613;28;20021;-55
2021/01/09 10:18:19;;;;;;;0.50;0.50;;;20.90;43.10;;;;;;6275088;28;20366;-60
2021/01/09 10:21:19;;;;;;;0.50;0.50;;;20.80;43.00;;;;;;6274600;28;20078;-59
2021/01/09 10:24:20;;;;;;;1.00;0.52;;;20.90;43.10;;;;;;6293298;28;20024;-59
2021/01/09 10:27:20;;;;;;;0.68;0.60;;;20.90;43.20;;;;;;6291037;28;20075;-59
2021/01/09 10:30:21;;;;;;;0.60;0.50;;;20.80;43.00;;;;;;6274910;28;20074;-59
2021/01/09 10:33:21;;;;;;;0.40;0.40;;;20.90;43.10;;;;;;6266424;28;20397;-56
2021/01/09 10:36:27;;;;;;;0.47;0.40;;;20.90;43.10;;;;;;6283220;28;20024;-58
2021/01/09 10:39:27;;;;;;;0.88;0.60;;;20.90;43.10;;;;;;6291265;28;20428;-57
2021/01/09 10:42:28;;;;;;;0.65;0.60;;;20.80;43.10;;;;;;6274286;28;20031;-58
2021/01/09 10:45:29;;;;;;;0.43;0.40;;;20.80;43.00;;;;;;6275001;28;20020;-58
2021/01/09 10:48:29;;;;;;;0.70;0.60;;;20.90;43.20;;;;;;6274354;28;20112;-58
2021/01/09 10:51:30;;;;;;;0.57;0.50;;;20.80;43.00;;;;;;6274270;28;20054;-58
2021/01/09 10:54:30;;;;;;;0.98;0.57;;;20.90;43.30;;;;;;6274316;28;20055;-58
2021/01/09 10:57:32;;;;;;;0.50;0.47;;;20.80;43.10;;;;;;6274380;28;20104;-57
2021/01/09 11:00:33;;;;;;;1.02;0.73;;;20.90;43.30;;;;;;6265465;28;20083;-59
2021/01/09 11:03:33;;;;;;;0.75;0.60;;;20.80;43.20;;;;;;6287183;28;20027;-57
2021/01/09 11:06:34;;;;;;;0.55;0.50;;;20.80;43.40;;;;;;6274467;28;20017;-56
2021/01/09 11:09:35;;;;;;;0.70;0.70;;;20.80;43.30;;;;;;6274123;28;20362;-58
2021/01/09 11:12:35;;;;;;;0.60;0.60;;;20.80;43.30;;;;;;6273873;28;20020;-58
2021/01/09 11:15:36;;;;;;;0.50;0.45;;;20.80;43.40;;;;;;6273950;28;20024;-59
2021/01/09 11:18:36;;;;;;;0.90;0.50;;;20.80;43.30;;;;;;6274140;28;20791;-60
2021/01/09 11:21:38;;;;;;;0.57;0.50;;;20.80;43.30;;;;;;6275649;28;20025;-56
2021/01/09 11:24:38;;;;;;;0.85;0.70;;;20.80;43.40;;;;;;6279030;28;20622;-58
2021/01/09 11:27:39;;;;;;;0.57;0.43;;;20.80;43.40;;;;;;6278866;28;20045;-58
2021/01/09 11:30:40;;;;;;;0.73;0.60;;;20.80;43.30;;;;;;6275398;28;20025;-59
2021/01/09 11:33:41;;;;;;;0.77;0.60;;;20.80;43.40;;;;;;6278907;28;20037;-58
2021/01/09 11:36:44;;;;;;;0.47;0.47;;;20.80;43.60;;;;;;6278907;28;20246;-56
2021/01/09 11:39:45;;;;;;;0.57;0.50;;;20.80;43.50;;;;;;6270115;28;20029;-59
2021/01/09 11:42:45;;;;;;;0.70;0.60;;;20.80;43.50;;;;;;6286352;28;20059;-57
2021/01/09 11:45:46;;;;;;;0.52;0.50;;;20.80;43.50;;;;;;6270152;28;20108;-56
2021/01/09 11:48:46;;;;;;;0.73;0.63;;;20.80;43.40;;;;;;6269968;28;20048;-60
2021/01/09 11:51:46;;;;;;;1.08;0.80;;;20.80;43.60;;;;;;6278364;28;20029;-58
2021/01/09 11:54:47;;;;;;;0.60;0.50;;;20.70;43.50;;;;;;6278137;28;20459;-58
2021/01/09 11:57:48;;;;;;;0.45;0.45;;;20.70;43.40;;;;;;6278393;28;20031;-58
2021/01/09 12:00:49;;;;;;;0.68;0.60;;;20.70;43.60;;;;;;6277534;28;20024;-58
2021/01/09 12:03:49;;;;;;;0.68;0.57;;;20.70;43.50;;;;;;6278051;28;20025;-54
2021/01/09 12:06:55;;;;;;;0.63;0.63;;;20.70;43.50;;;;;;6278153;28;20023;-59
2021/01/09 12:09:56;;;;;;;0.70;0.63;;;20.70;43.60;;;;;;6277598;28;20035;-57
2021/01/09 12:12:56;;;;;;;1.25;0.80;;;20.70;43.60;;;;;;6278192;28;20024;-57
2021/01/09 12:15:57;;;;;;;0.88;0.80;;;20.70;43.40;;;;;;6277360;28;20024;-58
2021/01/09 12:18:58;;;;;;;0.60;0.50;;;20.70;43.50;;;;;;6278014;28;20033;-58
2021/01/09 12:21:58;;;;;;;0.85;0.75;;;20.70;43.60;;;;;;6277198;28;20035;-56
2021/01/09 12:24:59;;;;;;;0.50;0.50;;;20.70;43.60;;;;;;6277804;28;20346;-57
2021/01/09 12:28:02;;;;;;;0.75;0.60;;;20.70;43.40;;;;;;6277208;28;20500;-56
2021/01/09 12:31:03;;;;;;;0.50;0.50;;;20.70;43.70;;;;;;6277258;28;20036;-59
2021/01/09 12:34:04;;;;;;;0.70;0.50;;;20.70;43.60;;;;;;6276849;28;20390;-60
2021/01/09 12:37:05;;;;;;;1.27;0.80;;;20.70;43.40;;;;;;6276993;28;20032;-58
2021/01/09 12:40:06;;;;;;;0.70;0.70;;;20.70;43.40;;;;;;6277006;28;20064;-57
2021/01/09 12:43:07;;;;;;;0.88;0.70;;;20.70;43.90;;;;;;6295413;28;20104;-57
2021/01/09 12:46:07;;;;;;;0.80;0.70;;;20.70;43.50;;;;;;6289062;28;20349;-56
2021/01/09 12:49:16;;;;;;;0.60;0.60;;;20.70;43.60;;;;;;6277129;28;20245;-60
2021/01/09 12:52:17;;;;;;;0.82;0.73;;;20.70;43.40;;;;;;6277053;28;20063;-59
2021/01/09 12:55:17;;;;;;;0.63;0.60;;;20.70;43.50;;;;;;6276722;28;20029;-56
2021/01/09 12:58:18;;;;;;;0.98;0.70;;;20.70;43.30;;;;;;6277288;28;20115;-56
2021/01/09 13:01:18;;;;;;;2.85;1.02;;;20.80;43.50;;;;;;6268516;28;20028;-60
2021/01/09 13:04:20;;;;;;;4.90;2.72;;;20.70;42.70;;;;;;6268062;28;20473;-58
2021/01/09 13:07:21;;;;;;;3.88;2.60;;;20.60;41.80;;;;;;6272096;28;20021;-58
2021/01/09 13:10:22;;;;;;;6.70;2.47;;;20.70;41.70;;;;;;6276290;28;20102;-59
2021/01/09 13:13:22;;;;;;;3.33;1.98;;;20.90;40.90;;;;;;6293647;28;20028;-59
2021/01/09 13:16:23;;;;;;;2.72;1.63;;;21.00;41.00;;;;;;6274032;28;20465;-59
2021/01/09 13:19:23;;;;;;;3.28;1.73;;;21.10;42.30;;;;;;6291777;28;20017;-58
2021/01/09 13:22:24;;;;;;;9.85;1.30;;;21.20;42.10;;;;;;6274956;28;20031;-55
2021/01/09 13:25:25;;;;;;;4.28;1.55;;;21.20;42.10;;;;;;6274670;28;20024;-61
2021/01/09 13:28:25;;;;;;;5.07;1.80;;;21.20;42.00;;;;;;6273062;28;20036;-58
2021/01/09 13:31:30;;;;;;;2.28;1.58;;;21.20;41.50;;;;;;6273388;28;20024;-58
2021/01/09 13:34:31;;;;;;;;;;;21.20;41.50;;;;;;6270324;28;20376;-58
2021/01/09 13:37:31;;;;;;;3.92;1.55;;;21.20;41.60;;;;;;6271250;28;19912;-58
2021/01/09 13:40:32;;;;;;;3.50;1.10;;;21.30;42.10;;;;;;6275830;28;20040;-55
2021/01/09 13:43:32;;;;;;;5.93;1.30;;;21.30;41.70;;;;;;6288525;28;20108;-58
2021/01/09 13:46:34;;;;;;;6.25;1.50;;;21.30;41.90;;;;;;6270945;28;20494;-57
2021/01/09 13:49:36;;;;;;;6.15;1.15;;;21.40;41.90;;;;;;6273359;28;20516;-58
2021/01/09 13:52:37;;;;;;;1.67;1.00;;;21.40;42.30;;;;;;6290137;28;20056;-58
2021/01/09 13:55:37;;;;;;;3.78;1.52;;;21.40;42.40;;;;;;6273186;28;20507;-60
2021/01/09 13:58:38;;;;;;;2.97;1.30;;;21.50;41.90;;;;;;6306153;28;20031;-57
2021/01/09 14:01:39;;;;;;;7.13;1.45;;;21.50;41.80;;;;;;6272621;28;20025;-57
2021/01/09 14:04:39;;;;;;;9.38;1.40;;;21.50;41.90;;;;;;6259225;28;20024;-59
2021/01/09 14:07:40;;;;;;;8.75;1.40;;;21.50;42.50;;;;;;6272191;28;20434;-60
2021/01/09 14:10:41;;;;;;;9.82;1.40;;;21.50;42.40;;;;;;6273019;28;20017;-55
2021/01/09 14:13:41;;;;;;;6.60;1.20;;;21.60;42.50;;;;;;6271228;28;20020;-53
2021/01/09 14:16:42;;;;;;;3.35;1.00;;;21.60;42.20;;;;;;6265072;28;20486;-55
2021/01/09 14:19:43;;;;;;;3.38;1.42;;;21.50;42.60;;;;;;6265028;28;20052;-56
2021/01/09 14:22:44;;;;;;;3.00;0.95;;;21.40;42.60;;;;;;6278679;28;20032;-58
2021/01/09 14:25:50;;;;;;;6.78;0.95;;;21.40;42.70;;;;;;6272991;28;20426;-56
2021/01/09 14:28:51;;;;;;;1.92;1.33;;;21.40;43.20;;;;;;6267808;28;20039;-54
2021/01/09 14:31:58;;;;;;;1.73;1.15;;;21.50;42.60;;;;;;6273066;28;20388;-56
2021/01/09 14:34:58;;;;;;;3.47;1.13;;;21.60;42.70;;;;;;6258459;28;20036;-55
2021/01/09 14:37:58;;;;;;;5.10;1.10;;;21.60;41.90;;;;;;6273735;28;20025;-56
2021/01/09 14:40:59;;;;;;;8.77;1.40;;;21.60;42.70;;;;;;6291214;28;20024;-57
2021/01/09 14:44:00;;;;;;;13.38;5.57;;;21.60;42.50;;;;;;6266653;28;20524;-58
2021/01/09 14:47:00;;;;;;;23.05;8.18;;;21.50;42.60;;;;;;6264202;28;20032;-57
2021/01/09 14:50:01;;;;;;;38.10;13.95;;;21.60;42.60;;;;;;6280678;28;20210;-58
2021/01/09 14:53:01;;;;;;;49.80;18.55;;;21.60;42.60;;;;;;6270541;28;20028;-55
2021/01/09 14:56:02;;;;;;;73.60;26.73;;;21.50;42.60;;;;;;6271996;28;20025;-56
2021/01/09 14:59:03;;;;;;;39.90;17.60;;;21.60;42.60;;;;;;6281878;28;20024;-54
2021/01/09 15:02:07;;;;;;;48.67;19.10;;;21.60;42.60;;;;;;6278021;28;20109;-55
2021/01/09 15:05:09;;;;;;;68.97;28.65;;;21.60;42.60;;;;;;6272607;28;20478;-56
2021/01/09 15:08:13;;;;;;;62.92;25.25;;;21.60;42.50;;;;;;6289308;28;20028;-52
2021/01/09 15:11:13;;;;;;;98.25;39.45;;;21.60;42.60;;;;;;6266195;28;20032;-53
2021/01/09 15:14:14;;;;;;;109.05;42.95;;;21.60;42.80;;;;;;6279552;28;20025;-56
2021/01/09 15:17:14;;;;;;;77.20;31.75;;;21.60;42.80;;;;;;6271346;28;20029;-57
2021/01/09 15:20:15;;;;;;;88.55;33.15;;;21.60;42.70;;;;;;6264366;28;20128;-56
2021/01/09 15:23:16;;;;;;;84.68;34.40;;;21.60;42.80;;;;;;6256623;28;20021;-58
2021/01/09 15:26:16;;;;;;;105.57;40.17;;;21.60;42.80;;;;;;6278715;28;20034;-58
2021/01/09 15:29:16;;;;;;;96.97;39.95;;;21.60;42.70;;;;;;6287614;28;20031;-58
2021/01/09 15:32:17;;;;;;;93.30;34.70;;;21.60;42.70;;;;;;6263677;28;20021;-58
2021/01/09 15:35:18;;;;;;;79.38;32.47;;;21.60;42.60;;;;;;6271160;28;20120;-56
2021/01/09 15:38:18;;;;;;;102.78;36.25;;;21.60;42.90;;;;;;6271445;28;20028;-59
2021/01/09 15:41:19;;;;;;;89.63;37.75;;;21.60;43.00;;;;;;6272160;28;20025;-56
2021/01/09 15:44:19;;;;;;;74.70;30.20;;;21.60;42.80;;;;;;6272595;28;20077;-54
2021/01/09 15:47:20;;;;;;;73.70;31.13;;;21.60;42.90;;;;;;6271115;28;20439;-58